Devon, Canada
Current Conditions -  °F | °C
As of 5:00 PM on Sunday 23 Nov 2014 (Local Time) from CYEG Reporting Station
Overcast Overcast  
Wind Chill: 18°   Ceiling: 7000
Heat Index: 25°   Visibility: 15mi
Dew Point: 19°   Wind: 6mph
Humidity: 80%   Direction: 170°S
Pressure: 29.7"   Gusts: NA
Location:  53.37°N, 113.73°W
Report Text: CYEG 240000Z 17005KT 15SM BKN070 OVC160 M04/M07 A2970 RMK AC7AC1 SLP104
Loading
Personal Weather Stations






























Interactive Weather Map New forecast layout! Learn more

10-Day Weather Forecast

Advertisements
Track Severe Weather on mobile